sensor_id;sensor_type;location;lat;lon;timestamp;P1;durP1;ratioP1;P2;durP2;ratioP2
23270;SDS011;11804;51.118;17.058;2023-04-05T00:00:01;23.07;;;9.80;;
23270;SDS011;11804;51.118;17.058;2023-04-05T00:02:31;21.63;;;10.30;;
23270;SDS011;11804;51.118;17.058;2023-04-05T00:04:59;19.20;;;9.43;;
23270;SDS011;11804;51.118;17.058;2023-04-05T00:07:28;17.50;;;9.33;;
23270;SDS011;11804;51.118;17.058;2023-04-05T00:09:55;20.43;;;10.17;;
23270;SDS011;11804;51.118;17.058;2023-04-05T00:12:23;20.30;;;10.07;;
23270;SDS011;11804;51.118;17.058;2023-04-05T00:14:50;23.07;;;9.77;;
23270;SDS011;11804;51.118;17.058;2023-04-05T00:17:18;20.67;;;10.13;;
23270;SDS011;11804;51.118;17.058;2023-04-05T00:19:47;19.17;;;9.53;;
23270;SDS011;11804;51.118;17.058;2023-04-05T00:22:16;23.17;;;10.07;;
23270;SDS011;11804;51.118;17.058;2023-04-05T00:24:45;19.03;;;10.30;;
23270;SDS011;11804;51.118;17.058;2023-04-05T00:27:13;23.80;;;9.83;;
23270;SDS011;11804;51.118;17.058;2023-04-05T00:29:40;19.63;;;9.77;;
23270;SDS011;11804;51.118;17.058;2023-04-05T00:32:08;20.30;;;11.00;;
23270;SDS011;11804;51.118;17.058;2023-04-05T00:34:36;21.80;;;11.07;;
23270;SDS011;11804;51.118;17.058;2023-04-05T00:37:03;20.77;;;10.70;;
23270;SDS011;11804;51.118;17.058;2023-04-05T00:39:31;25.20;;;11.47;;
23270;SDS011;11804;51.118;17.058;2023-04-05T00:42:04;22.80;;;11.17;;
23270;SDS011;11804;51.118;17.058;2023-04-05T00:44:29;21.67;;;10.27;;
23270;SDS011;11804;51.118;17.058;2023-04-05T00:47:01;24.97;;;11.00;;
23270;SDS011;11804;51.118;17.058;2023-04-05T00:49:29;23.87;;;12.07;;
23270;SDS011;11804;51.118;17.058;2023-04-05T00:51:59;23.60;;;10.60;;
23270;SDS011;11804;51.118;17.058;2023-04-05T00:54:27;30.67;;;12.03;;
23270;SDS011;11804;51.118;17.058;2023-04-05T00:56:55;26.97;;;11.63;;
23270;SDS011;11804;51.118;17.058;2023-04-05T00:59:27;24.60;;;11.83;;
23270;SDS011;11804;51.118;17.058;2023-04-05T01:01:59;27.67;;;11.33;;
23270;SDS011;11804;51.118;17.058;2023-04-05T01:04:27;24.30;;;12.00;;
23270;SDS011;11804;51.118;17.058;2023-04-05T01:07:03;21.67;;;10.70;;
23270;SDS011;11804;51.118;17.058;2023-04-05T01:09:47;23.70;;;11.03;;
23270;SDS011;11804;51.118;17.058;2023-04-05T01:12:27;25.53;;;11.47;;
23270;SDS011;11804;51.118;17.058;2023-04-05T01:14:59;22.43;;;11.13;;
23270;SDS011;11804;51.118;17.058;2023-04-05T01:17:28;26.00;;;11.90;;
23270;SDS011;11804;51.118;17.058;2023-04-05T01:19:58;23.80;;;11.40;;
23270;SDS011;11804;51.118;17.058;2023-04-05T01:22:34;24.97;;;11.60;;
23270;SDS011;11804;51.118;17.058;2023-04-05T01:30:58;24.60;;;11.60;;
23270;SDS011;11804;51.118;17.058;2023-04-05T01:33:34;23.67;;;11.47;;
23270;SDS011;11804;51.118;17.058;2023-04-05T01:36:07;25.50;;;11.77;;
23270;SDS011;11804;51.118;17.058;2023-04-05T01:38:38;23.53;;;11.37;;
23270;SDS011;11804;51.118;17.058;2023-04-05T01:41:06;28.70;;;12.23;;
23270;SDS011;11804;51.118;17.058;2023-04-05T01:43:36;25.27;;;12.00;;
23270;SDS011;11804;51.118;17.058;2023-04-05T01:46:03;25.80;;;12.47;;
23270;SDS011;11804;51.118;17.058;2023-04-05T01:48:31;27.70;;;12.53;;
23270;SDS011;11804;51.118;17.058;2023-04-05T01:50:59;25.10;;;11.63;;
23270;SDS011;11804;51.118;17.058;2023-04-05T01:53:26;23.50;;;11.50;;
23270;SDS011;11804;51.118;17.058;2023-04-05T01:55:58;27.93;;;12.47;;
23270;SDS011;11804;51.118;17.058;2023-04-05T01:58:27;22.17;;;11.67;;
23270;SDS011;11804;51.118;17.058;2023-04-05T02:00:55;27.50;;;12.00;;
23270;SDS011;11804;51.118;17.058;2023-04-05T02:03:23;27.13;;;12.30;;
23270;SDS011;11804;51.118;17.058;2023-04-05T02:05:51;27.07;;;12.37;;
23270;SDS011;11804;51.118;17.058;2023-04-05T02:08:18;24.33;;;12.27;;
23270;SDS011;11804;51.118;17.058;2023-04-05T02:10:46;22.03;;;11.60;;
23270;SDS011;11804;51.118;17.058;2023-04-05T02:13:13;21.90;;;11.57;;
23270;SDS011;11804;51.118;17.058;2023-04-05T02:15:46;24.77;;;12.13;;
23270;SDS011;11804;51.118;17.058;2023-04-05T02:18:14;21.53;;;11.67;;
23270;SDS011;11804;51.118;17.058;2023-04-05T02:20:44;21.20;;;11.40;;
23270;SDS011;11804;51.118;17.058;2023-04-05T02:23:12;21.50;;;11.70;;
23270;SDS011;11804;51.118;17.058;2023-04-05T02:25:39;22.30;;;10.93;;
23270;SDS011;11804;51.118;17.058;2023-04-05T02:28:07;22.33;;;11.40;;
23270;SDS011;11804;51.118;17.058;2023-04-05T02:30:34;31.00;;;12.00;;
23270;SDS011;11804;51.118;17.058;2023-04-05T02:33:02;27.60;;;11.97;;
23270;SDS011;11804;51.118;17.058;2023-04-05T02:35:30;23.37;;;11.47;;
23270;SDS011;11804;51.118;17.058;2023-04-05T02:37:57;23.43;;;10.27;;
23270;SDS011;11804;51.118;17.058;2023-04-05T02:40:26;24.47;;;11.40;;
23270;SDS011;11804;51.118;17.058;2023-04-05T02:42:55;21.03;;;11.13;;
23270;SDS011;11804;51.118;17.058;2023-04-05T02:45:22;24.30;;;11.70;;
23270;SDS011;11804;51.118;17.058;2023-04-05T02:47:52;22.97;;;11.27;;
23270;SDS011;11804;51.118;17.058;2023-04-05T02:50:20;23.30;;;11.37;;
23270;SDS011;11804;51.118;17.058;2023-04-05T02:52:51;24.97;;;11.40;;
23270;SDS011;11804;51.118;17.058;2023-04-05T02:55:19;26.03;;;11.13;;
23270;SDS011;11804;51.118;17.058;2023-04-05T02:57:46;23.37;;;12.13;;
23270;SDS011;11804;51.118;17.058;2023-04-05T03:00:14;25.00;;;11.67;;
23270;SDS011;11804;51.118;17.058;2023-04-05T03:02:43;19.83;;;10.67;;
23270;SDS011;11804;51.118;17.058;2023-04-05T03:05:11;21.27;;;10.63;;
23270;SDS011;11804;51.118;17.058;2023-04-05T03:07:41;25.83;;;11.27;;
23270;SDS011;11804;51.118;17.058;2023-04-05T03:10:12;23.73;;;11.03;;
23270;SDS011;11804;51.118;17.058;2023-04-05T03:12:41;28.73;;;12.17;;
23270;SDS011;11804;51.118;17.058;2023-04-05T03:15:09;22.10;;;10.57;;
23270;SDS011;11804;51.118;17.058;2023-04-05T03:17:37;25.13;;;11.83;;
23270;SDS011;11804;51.118;17.058;2023-04-05T03:20:07;23.43;;;11.17;;
23270;SDS011;11804;51.118;17.058;2023-04-05T03:22:35;21.73;;;11.03;;
23270;SDS011;11804;51.118;17.058;2023-04-05T03:25:03;22.83;;;11.63;;
23270;SDS011;11804;51.118;17.058;2023-04-05T03:27:31;26.97;;;11.90;;
23270;SDS011;11804;51.118;17.058;2023-04-05T03:29:59;21.87;;;11.10;;
23270;SDS011;11804;51.118;17.058;2023-04-05T03:32:27;23.43;;;11.03;;
23270;SDS011;11804;51.118;17.058;2023-04-05T03:34:55;24.30;;;10.57;;
23270;SDS011;11804;51.118;17.058;2023-04-05T03:37:22;22.37;;;10.80;;
23270;SDS011;11804;51.118;17.058;2023-04-05T03:39:50;21.63;;;10.67;;
23270;SDS011;11804;51.118;17.058;2023-04-05T03:42:17;29.70;;;11.53;;
23270;SDS011;11804;51.118;17.058;2023-04-05T03:44:45;21.07;;;10.27;;
23270;SDS011;11804;51.118;17.058;2023-04-05T03:47:14;20.93;;;11.03;;
23270;SDS011;11804;51.118;17.058;2023-04-05T03:49:42;23.97;;;11.10;;
23270;SDS011;11804;51.118;17.058;2023-04-05T03:52:09;28.47;;;11.63;;
23270;SDS011;11804;51.118;17.058;2023-04-05T03:54:37;28.13;;;12.17;;
23270;SDS011;11804;51.118;17.058;2023-04-05T03:57:05;24.67;;;11.13;;
23270;SDS011;11804;51.118;17.058;2023-04-05T03:59:33;21.73;;;11.70;;
23270;SDS011;11804;51.118;17.058;2023-04-05T04:02:02;25.33;;;12.33;;
23270;SDS011;11804;51.118;17.058;2023-04-05T04:04:31;34.07;;;12.90;;
23270;SDS011;11804;51.118;17.058;2023-04-05T04:06:59;25.83;;;12.47;;
23270;SDS011;11804;51.118;17.058;2023-04-05T04:09:26;23.57;;;11.53;;
23270;SDS011;11804;51.118;17.058;2023-04-05T04:11:57;26.17;;;12.03;;
23270;SDS011;11804;51.118;17.058;2023-04-05T04:14:24;27.13;;;13.30;;
23270;SDS011;11804;51.118;17.058;2023-04-05T04:16:52;34.93;;;12.30;;
23270;SDS011;11804;51.118;17.058;2023-04-05T04:19:19;30.53;;;13.33;;
23270;SDS011;11804;51.118;17.058;2023-04-05T04:21:47;29.13;;;12.97;;
23270;SDS011;11804;51.118;17.058;2023-04-05T04:24:16;22.27;;;11.97;;
23270;SDS011;11804;51.118;17.058;2023-04-05T04:26:45;40.03;;;13.30;;
23270;SDS011;11804;51.118;17.058;2023-04-05T04:29:13;31.57;;;12.90;;
23270;SDS011;11804;51.118;17.058;2023-04-05T04:31:43;24.77;;;12.27;;
23270;SDS011;11804;51.118;17.058;2023-04-05T04:34:13;29.30;;;12.70;;
23270;SDS011;11804;51.118;17.058;2023-04-05T04:36:42;32.30;;;12.67;;
23270;SDS011;11804;51.118;17.058;2023-04-05T04:39:11;23.97;;;12.30;;
23270;SDS011;11804;51.118;17.058;2023-04-05T04:41:39;27.67;;;11.67;;
23270;SDS011;11804;51.118;17.058;2023-04-05T04:44:09;28.97;;;12.57;;
23270;SDS011;11804;51.118;17.058;2023-04-05T04:46:39;25.97;;;13.27;;
23270;SDS011;11804;51.118;17.058;2023-04-05T04:49:09;31.60;;;12.37;;
23270;SDS011;11804;51.118;17.058;2023-04-05T04:51:38;30.73;;;13.33;;
23270;SDS011;11804;51.118;17.058;2023-04-05T04:54:07;30.43;;;12.40;;
23270;SDS011;11804;51.118;17.058;2023-04-05T04:56:34;26.07;;;12.70;;
23270;SDS011;11804;51.118;17.058;2023-04-05T04:59:02;29.20;;;12.57;;
23270;SDS011;11804;51.118;17.058;2023-04-05T05:01:30;27.80;;;12.50;;
23270;SDS011;11804;51.118;17.058;2023-04-05T05:03:58;28.50;;;13.13;;
23270;SDS011;11804;51.118;17.058;2023-04-05T05:06:26;30.20;;;12.37;;
23270;SDS011;11804;51.118;17.058;2023-04-05T05:08:54;32.07;;;12.70;;
23270;SDS011;11804;51.118;17.058;2023-04-05T05:11:22;26.57;;;12.80;;
23270;SDS011;11804;51.118;17.058;2023-04-05T05:13:49;32.47;;;14.30;;
23270;SDS011;11804;51.118;17.058;2023-04-05T05:16:17;29.03;;;13.30;;
23270;SDS011;11804;51.118;17.058;2023-04-05T05:18:46;30.13;;;15.43;;
23270;SDS011;11804;51.118;17.058;2023-04-05T05:21:16;33.07;;;14.43;;
23270;SDS011;11804;51.118;17.058;2023-04-05T05:23:43;32.47;;;12.83;;
23270;SDS011;11804;51.118;17.058;2023-04-05T05:26:11;28.87;;;13.03;;
23270;SDS011;11804;51.118;17.058;2023-04-05T05:28:39;34.10;;;14.67;;
23270;SDS011;11804;51.118;17.058;2023-04-05T05:31:07;28.90;;;13.57;;
23270;SDS011;11804;51.118;17.058;2023-04-05T05:33:34;35.03;;;13.67;;
23270;SDS011;11804;51.118;17.058;2023-04-05T05:36:02;33.10;;;14.43;;
23270;SDS011;11804;51.118;17.058;2023-04-05T05:38:30;28.23;;;12.80;;
23270;SDS011;11804;51.118;17.058;2023-04-05T05:40:58;33.17;;;12.90;;
23270;SDS011;11804;51.118;17.058;2023-04-05T05:43:26;35.00;;;14.17;;
23270;SDS011;11804;51.118;17.058;2023-04-05T05:45:53;30.83;;;12.97;;
23270;SDS011;11804;51.118;17.058;2023-04-05T05:48:21;35.00;;;14.53;;
23270;SDS011;11804;51.118;17.058;2023-04-05T05:50:49;36.47;;;14.00;;
23270;SDS011;11804;51.118;17.058;2023-04-05T05:53:17;30.47;;;12.87;;
23270;SDS011;11804;51.118;17.058;2023-04-05T05:55:45;44.70;;;13.63;;
23270;SDS011;11804;51.118;17.058;2023-04-05T05:58:12;23.03;;;11.87;;
23270;SDS011;11804;51.118;17.058;2023-04-05T06:00:40;27.37;;;13.37;;
23270;SDS011;11804;51.118;17.058;2023-04-05T06:03:09;31.57;;;12.70;;
23270;SDS011;11804;51.118;17.058;2023-04-05T06:05:36;26.73;;;11.03;;
23270;SDS011;11804;51.118;17.058;2023-04-05T06:08:04;31.20;;;13.37;;
23270;SDS011;11804;51.118;17.058;2023-04-05T06:10:34;25.17;;;12.13;;
23270;SDS011;11804;51.118;17.058;2023-04-05T06:13:02;27.43;;;12.67;;
23270;SDS011;11804;51.118;17.058;2023-04-05T06:15:30;30.73;;;13.43;;
23270;SDS011;11804;51.118;17.058;2023-04-05T06:17:58;32.23;;;12.43;;
23270;SDS011;11804;51.118;17.058;2023-04-05T06:20:25;36.30;;;13.80;;
23270;SDS011;11804;51.118;17.058;2023-04-05T06:22:53;42.33;;;14.40;;
23270;SDS011;11804;51.118;17.058;2023-04-05T06:25:20;32.23;;;14.97;;
23270;SDS011;11804;51.118;17.058;2023-04-05T06:27:48;33.20;;;15.00;;
23270;SDS011;11804;51.118;17.058;2023-04-05T06:30:16;38.60;;;15.93;;
23270;SDS011;11804;51.118;17.058;2023-04-05T06:32:43;55.60;;;17.87;;
23270;SDS011;11804;51.118;17.058;2023-04-05T06:35:13;38.07;;;15.37;;
23270;SDS011;11804;51.118;17.058;2023-04-05T06:37:41;32.47;;;14.03;;
23270;SDS011;11804;51.118;17.058;2023-04-05T06:40:10;33.73;;;13.47;;
23270;SDS011;11804;51.118;17.058;2023-04-05T06:42:39;27.33;;;14.17;;
23270;SDS011;11804;51.118;17.058;2023-04-05T06:45:06;38.50;;;16.87;;
23270;SDS011;11804;51.118;17.058;2023-04-05T06:47:35;45.17;;;17.03;;
23270;SDS011;11804;51.118;17.058;2023-04-05T06:50:05;35.00;;;14.70;;
23270;SDS011;11804;51.118;17.058;2023-04-05T06:52:34;60.93;;;16.43;;
23270;SDS011;11804;51.118;17.058;2023-04-05T06:55:02;34.40;;;13.77;;
23270;SDS011;11804;51.118;17.058;2023-04-05T06:57:30;29.03;;;15.67;;
23270;SDS011;11804;51.118;17.058;2023-04-05T06:59:57;36.90;;;15.07;;
23270;SDS011;11804;51.118;17.058;2023-04-05T07:02:25;30.63;;;13.37;;
23270;SDS011;11804;51.118;17.058;2023-04-05T07:04:52;31.57;;;14.27;;
23270;SDS011;11804;51.118;17.058;2023-04-05T07:07:22;31.60;;;13.93;;
23270;SDS011;11804;51.118;17.058;2023-04-05T07:09:49;30.37;;;13.03;;
23270;SDS011;11804;51.118;17.058;2023-04-05T07:12:17;26.97;;;12.80;;
23270;SDS011;11804;51.118;17.058;2023-04-05T07:14:45;29.17;;;14.17;;
23270;SDS011;11804;51.118;17.058;2023-04-05T07:17:12;33.87;;;17.50;;
23270;SDS011;11804;51.118;17.058;2023-04-05T07:19:40;48.80;;;23.93;;
23270;SDS011;11804;51.118;17.058;2023-04-05T07:22:09;34.23;;;14.87;;
23270;SDS011;11804;51.118;17.058;2023-04-05T07:24:36;36.90;;;16.87;;
23270;SDS011;11804;51.118;17.058;2023-04-05T07:27:04;29.80;;;13.17;;
23270;SDS011;11804;51.118;17.058;2023-04-05T07:29:32;25.07;;;12.57;;
23270;SDS011;11804;51.118;17.058;2023-04-05T07:32:01;25.87;;;13.03;;
23270;SDS011;11804;51.118;17.058;2023-04-05T07:34:29;25.03;;;12.97;;
23270;SDS011;11804;51.118;17.058;2023-04-05T07:36:57;39.03;;;13.40;;
23270;SDS011;11804;51.118;17.058;2023-04-05T07:39:24;27.77;;;12.50;;
23270;SDS011;11804;51.118;17.058;2023-04-05T07:41:52;34.47;;;12.97;;
23270;SDS011;11804;51.118;17.058;2023-04-05T07:44:20;29.97;;;13.13;;
23270;SDS011;11804;51.118;17.058;2023-04-05T07:46:48;31.77;;;11.23;;
23270;SDS011;11804;51.118;17.058;2023-04-05T07:49:16;21.77;;;11.10;;
23270;SDS011;11804;51.118;17.058;2023-04-05T07:51:43;20.50;;;10.83;;
23270;SDS011;11804;51.118;17.058;2023-04-05T07:54:13;27.23;;;12.03;;
23270;SDS011;11804;51.118;17.058;2023-04-05T07:56:40;22.87;;;12.30;;
23270;SDS011;11804;51.118;17.058;2023-04-05T07:59:08;23.20;;;11.57;;
23270;SDS011;11804;51.118;17.058;2023-04-05T08:01:35;26.60;;;12.60;;
23270;SDS011;11804;51.118;17.058;2023-04-05T08:04:03;21.07;;;9.90;;
23270;SDS011;11804;51.118;17.058;2023-04-05T08:06:30;19.50;;;9.30;;
23270;SDS011;11804;51.118;17.058;2023-04-05T08:08:58;19.27;;;8.63;;
23270;SDS011;11804;51.118;17.058;2023-04-05T08:11:27;17.17;;;9.17;;
23270;SDS011;11804;51.118;17.058;2023-04-05T08:13:57;16.10;;;8.97;;
23270;SDS011;11804;51.118;17.058;2023-04-05T08:16:24;17.87;;;8.60;;
23270;SDS011;11804;51.118;17.058;2023-04-05T08:18:52;14.90;;;8.90;;
23270;SDS011;11804;51.118;17.058;2023-04-05T08:21:25;15.70;;;8.97;;
23270;SDS011;11804;51.118;17.058;2023-04-05T08:23:50;18.67;;;9.43;;
23270;SDS011;11804;51.118;17.058;2023-04-05T08:26:17;18.77;;;9.97;;
23270;SDS011;11804;51.118;17.058;2023-04-05T08:28:45;20.33;;;10.33;;
23270;SDS011;11804;51.118;17.058;2023-04-05T08:31:13;21.07;;;10.30;;
23270;SDS011;11804;51.118;17.058;2023-04-05T08:33:40;18.20;;;9.30;;
23270;SDS011;11804;51.118;17.058;2023-04-05T08:36:08;16.33;;;8.47;;
23270;SDS011;11804;51.118;17.058;2023-04-05T08:38:37;16.20;;;7.80;;
23270;SDS011;11804;51.118;17.058;2023-04-05T08:41:13;13.00;;;7.07;;
23270;SDS011;11804;51.118;17.058;2023-04-05T08:43:56;30.73;;;8.80;;
23270;SDS011;11804;51.118;17.058;2023-04-05T08:46:29;18.30;;;8.67;;
23270;SDS011;11804;51.118;17.058;2023-04-05T08:48:58;19.97;;;9.00;;
23270;SDS011;11804;51.118;17.058;2023-04-05T08:51:26;14.83;;;6.50;;
23270;SDS011;11804;51.118;17.058;2023-04-05T08:53:54;25.63;;;9.03;;
23270;SDS011;11804;51.118;17.058;2023-04-05T08:56:25;13.93;;;4.90;;
23270;SDS011;11804;51.118;17.058;2023-04-05T09:01:31;17.67;;;5.23;;
23270;SDS011;11804;51.118;17.058;2023-04-05T09:04:04;18.93;;;4.50;;
23270;SDS011;11804;51.118;17.058;2023-04-05T09:06:34;9.97;;;4.03;;
23270;SDS011;11804;51.118;17.058;2023-04-05T09:09:04;27.57;;;5.07;;
23270;SDS011;11804;51.118;17.058;2023-04-05T09:11:33;10.03;;;4.50;;
23270;SDS011;11804;51.118;17.058;2023-04-05T09:14:04;13.40;;;4.40;;
23270;SDS011;11804;51.118;17.058;2023-04-05T09:16:38;8.53;;;3.53;;
23270;SDS011;11804;51.118;17.058;2023-04-05T09:19:06;10.13;;;3.90;;
23270;SDS011;11804;51.118;17.058;2023-04-05T09:24:29;11.43;;;4.83;;
23270;SDS011;11804;51.118;17.058;2023-04-05T09:27:05;9.70;;;4.30;;
23270;SDS011;11804;51.118;17.058;2023-04-05T09:29:37;12.27;;;4.73;;
23270;SDS011;11804;51.118;17.058;2023-04-05T09:32:10;8.13;;;4.10;;
23270;SDS011;11804;51.118;17.058;2023-04-05T09:34:39;10.03;;;3.47;;
23270;SDS011;11804;51.118;17.058;2023-04-05T09:37:11;8.53;;;3.23;;
23270;SDS011;11804;51.118;17.058;2023-04-05T09:39:42;7.77;;;3.10;;
23270;SDS011;11804;51.118;17.058;2023-04-05T09:42:12;18.67;;;4.80;;
23270;SDS011;11804;51.118;17.058;2023-04-05T09:47:19;10.67;;;5.00;;
23270;SDS011;11804;51.118;17.058;2023-04-05T09:49:49;11.00;;;4.67;;
23270;SDS011;11804;51.118;17.058;2023-04-05T09:52:24;13.20;;;5.17;;
23270;SDS011;11804;51.118;17.058;2023-04-05T09:54:57;12.93;;;5.37;;
23270;SDS011;11804;51.118;17.058;2023-04-05T09:57:27;35.33;;;6.83;;
23270;SDS011;11804;51.118;17.058;2023-04-05T09:59:55;22.27;;;7.27;;
23270;SDS011;11804;51.118;17.058;2023-04-05T10:02:23;12.00;;;5.10;;
23270;SDS011;11804;51.118;17.058;2023-04-05T10:04:53;20.73;;;5.53;;
23270;SDS011;11804;51.118;17.058;2023-04-05T10:07:20;12.47;;;5.37;;
23270;SDS011;11804;51.118;17.058;2023-04-05T10:09:48;10.40;;;5.67;;
23270;SDS011;11804;51.118;17.058;2023-04-05T10:12:26;9.93;;;5.13;;
23270;SDS011;11804;51.118;17.058;2023-04-05T10:14:54;11.93;;;5.73;;
23270;SDS011;11804;51.118;17.058;2023-04-05T10:17:29;15.00;;;6.27;;
23270;SDS011;11804;51.118;17.058;2023-04-05T10:28:14;16.97;;;5.27;;
23270;SDS011;11804;51.118;17.058;2023-04-05T10:31:01;21.87;;;6.23;;
23270;SDS011;11804;51.118;17.058;2023-04-05T10:33:43;15.07;;;5.27;;
23270;SDS011;11804;51.118;17.058;2023-04-05T10:36:34;13.20;;;5.50;;
23270;SDS011;11804;51.118;17.058;2023-04-05T10:41:39;14.33;;;5.20;;
23270;SDS011;11804;51.118;17.058;2023-04-05T10:44:14;18.47;;;5.47;;
23270;SDS011;11804;51.118;17.058;2023-04-05T10:46:42;14.07;;;5.83;;
23270;SDS011;11804;51.118;17.058;2023-04-05T10:52:07;13.73;;;5.83;;
23270;SDS011;11804;51.118;17.058;2023-04-05T10:54:36;11.33;;;5.43;;
23270;SDS011;11804;51.118;17.058;2023-04-05T10:57:05;12.80;;;5.03;;
23270;SDS011;11804;51.118;17.058;2023-04-05T10:59:34;10.07;;;5.40;;
23270;SDS011;11804;51.118;17.058;2023-04-05T11:02:04;13.27;;;5.63;;
23270;SDS011;11804;51.118;17.058;2023-04-05T11:04:32;11.43;;;5.70;;
23270;SDS011;11804;51.118;17.058;2023-04-05T11:07:10;8.93;;;4.70;;
23270;SDS011;11804;51.118;17.058;2023-04-05T11:09:53;10.20;;;4.80;;
23270;SDS011;11804;51.118;17.058;2023-04-05T11:18:07;11.67;;;5.20;;
23270;SDS011;11804;51.118;17.058;2023-04-05T11:23:20;11.83;;;5.40;;
23270;SDS011;11804;51.118;17.058;2023-04-05T11:25:56;8.33;;;4.90;;
23270;SDS011;11804;51.118;17.058;2023-04-05T11:28:33;9.00;;;5.33;;
23270;SDS011;11804;51.118;17.058;2023-04-05T11:36:27;15.47;;;6.20;;
23270;SDS011;11804;51.118;17.058;2023-04-05T11:41:57;10.67;;;5.47;;
23270;SDS011;11804;51.118;17.058;2023-04-05T11:44:27;11.20;;;5.70;;
23270;SDS011;11804;51.118;17.058;2023-04-05T11:46:58;11.33;;;4.90;;
23270;SDS011;11804;51.118;17.058;2023-04-05T11:49:26;10.60;;;6.43;;
23270;SDS011;11804;51.118;17.058;2023-04-05T11:51:54;11.40;;;5.10;;
23270;SDS011;11804;51.118;17.058;2023-04-05T11:54:31;9.73;;;4.90;;
23270;SDS011;11804;51.118;17.058;2023-04-05T11:56:55;12.37;;;5.70;;
23270;SDS011;11804;51.118;17.058;2023-04-05T11:59:42;11.97;;;4.47;;
23270;SDS011;11804;51.118;17.058;2023-04-05T12:02:00;11.60;;;5.60;;
23270;SDS011;11804;51.118;17.058;2023-04-05T12:04:30;16.43;;;4.70;;
23270;SDS011;11804;51.118;17.058;2023-04-05T12:07:11;11.83;;;4.97;;
23270;SDS011;11804;51.118;17.058;2023-04-05T12:09:58;8.53;;;4.20;;
23270;SDS011;11804;51.118;17.058;2023-04-05T12:12:34;8.07;;;4.40;;
23270;SDS011;11804;51.118;17.058;2023-04-05T12:15:03;16.67;;;4.77;;
23270;SDS011;11804;51.118;17.058;2023-04-05T12:17:41;14.17;;;5.27;;
23270;SDS011;11804;51.118;17.058;2023-04-05T12:20:22;25.27;;;7.40;;
23270;SDS011;11804;51.118;17.058;2023-04-05T12:22:54;8.90;;;4.30;;
23270;SDS011;11804;51.118;17.058;2023-04-05T12:25:19;12.13;;;7.00;;
23270;SDS011;11804;51.118;17.058;2023-04-05T12:27:47;15.10;;;5.03;;
23270;SDS011;11804;51.118;17.058;2023-04-05T12:30:15;8.87;;;4.00;;
23270;SDS011;11804;51.118;17.058;2023-04-05T12:32:52;7.60;;;3.90;;
23270;SDS011;11804;51.118;17.058;2023-04-05T12:35:21;13.53;;;4.63;;
23270;SDS011;11804;51.118;17.058;2023-04-05T12:38:00;7.40;;;3.67;;
23270;SDS011;11804;51.118;17.058;2023-04-05T12:40:30;17.03;;;5.53;;
23270;SDS011;11804;51.118;17.058;2023-04-05T12:43:07;19.30;;;7.67;;
23270;SDS011;11804;51.118;17.058;2023-04-05T12:45:32;15.03;;;6.47;;
23270;SDS011;11804;51.118;17.058;2023-04-05T12:48:08;19.27;;;6.27;;
23270;SDS011;11804;51.118;17.058;2023-04-05T12:50:41;32.83;;;7.73;;
23270;SDS011;11804;51.118;17.058;2023-04-05T12:53:16;13.73;;;4.40;;
23270;SDS011;11804;51.118;17.058;2023-04-05T12:55:50;10.37;;;4.57;;
23270;SDS011;11804;51.118;17.058;2023-04-05T12:58:20;9.70;;;4.60;;
23270;SDS011;11804;51.118;17.058;2023-04-05T13:00:50;10.03;;;4.47;;
23270;SDS011;11804;51.118;17.058;2023-04-05T13:03:18;9.00;;;3.73;;
23270;SDS011;11804;51.118;17.058;2023-04-05T13:05:47;8.20;;;3.83;;
23270;SDS011;11804;51.118;17.058;2023-04-05T13:08:15;9.33;;;3.70;;
23270;SDS011;11804;51.118;17.058;2023-04-05T13:10:46;6.70;;;3.10;;
23270;SDS011;11804;51.118;17.058;2023-04-05T13:13:15;13.70;;;3.90;;
23270;SDS011;11804;51.118;17.058;2023-04-05T13:15:45;6.97;;;3.23;;
23270;SDS011;11804;51.118;17.058;2023-04-05T13:18:14;6.53;;;4.10;;
23270;SDS011;11804;51.118;17.058;2023-04-05T13:20:41;7.07;;;4.03;;
23270;SDS011;11804;51.118;17.058;2023-04-05T13:23:09;8.10;;;3.57;;
23270;SDS011;11804;51.118;17.058;2023-04-05T13:25:38;4.70;;;3.70;;
23270;SDS011;11804;51.118;17.058;2023-04-05T13:28:07;5.83;;;3.83;;
23270;SDS011;11804;51.118;17.058;2023-04-05T13:30:35;7.67;;;4.40;;
23270;SDS011;11804;51.118;17.058;2023-04-05T13:33:04;6.13;;;3.83;;
23270;SDS011;11804;51.118;17.058;2023-04-05T13:35:32;5.47;;;3.47;;
23270;SDS011;11804;51.118;17.058;2023-04-05T13:37:59;9.20;;;4.17;;
23270;SDS011;11804;51.118;17.058;2023-04-05T13:40:27;4.93;;;3.90;;
23270;SDS011;11804;51.118;17.058;2023-04-05T13:42:56;6.93;;;4.33;;
23270;SDS011;11804;51.118;17.058;2023-04-05T13:45:25;8.77;;;4.90;;
23270;SDS011;11804;51.118;17.058;2023-04-05T13:47:54;6.97;;;4.70;;
23270;SDS011;11804;51.118;17.058;2023-04-05T13:50:24;7.37;;;4.73;;
23270;SDS011;11804;51.118;17.058;2023-04-05T13:52:51;10.43;;;5.27;;
23270;SDS011;11804;51.118;17.058;2023-04-05T13:55:19;6.90;;;4.67;;
23270;SDS011;11804;51.118;17.058;2023-04-05T13:57:47;7.30;;;5.43;;
23270;SDS011;11804;51.118;17.058;2023-04-05T14:00:15;8.60;;;5.53;;
23270;SDS011;11804;51.118;17.058;2023-04-05T14:02:42;9.50;;;5.10;;
23270;SDS011;11804;51.118;17.058;2023-04-05T14:05:10;8.97;;;5.00;;
23270;SDS011;11804;51.118;17.058;2023-04-05T14:07:39;7.27;;;5.27;;
23270;SDS011;11804;51.118;17.058;2023-04-05T14:10:07;5.70;;;4.37;;
23270;SDS011;11804;51.118;17.058;2023-04-05T14:12:36;7.00;;;4.33;;
23270;SDS011;11804;51.118;17.058;2023-04-05T14:15:04;6.43;;;4.07;;
23270;SDS011;11804;51.118;17.058;2023-04-05T14:17:32;7.83;;;4.83;;
23270;SDS011;11804;51.118;17.058;2023-04-05T14:20:00;7.00;;;5.07;;
23270;SDS011;11804;51.118;17.058;2023-04-05T14:22:28;8.87;;;4.40;;
23270;SDS011;11804;51.118;17.058;2023-04-05T14:24:56;7.43;;;4.83;;
23270;SDS011;11804;51.118;17.058;2023-04-05T14:27:24;9.10;;;4.43;;
23270;SDS011;11804;51.118;17.058;2023-04-05T14:29:53;6.87;;;3.80;;
23270;SDS011;11804;51.118;17.058;2023-04-05T14:32:24;9.83;;;4.80;;
23270;SDS011;11804;51.118;17.058;2023-04-05T14:34:51;10.40;;;4.70;;
23270;SDS011;11804;51.118;17.058;2023-04-05T14:37:18;16.90;;;6.03;;
23270;SDS011;11804;51.118;17.058;2023-04-05T14:39:46;14.13;;;4.87;;
23270;SDS011;11804;51.118;17.058;2023-04-05T14:42:14;11.70;;;4.27;;
23270;SDS011;11804;51.118;17.058;2023-04-05T14:44:41;9.47;;;4.43;;
23270;SDS011;11804;51.118;17.058;2023-04-05T14:47:09;8.43;;;4.60;;
23270;SDS011;11804;51.118;17.058;2023-04-05T14:49:37;10.80;;;5.03;;
23270;SDS011;11804;51.118;17.058;2023-04-05T14:52:06;20.03;;;6.73;;
23270;SDS011;11804;51.118;17.058;2023-04-05T14:54:34;15.90;;;5.63;;
23270;SDS011;11804;51.118;17.058;2023-04-05T14:57:01;13.50;;;5.23;;
23270;SDS011;11804;51.118;17.058;2023-04-05T14:59:29;11.57;;;4.90;;
23270;SDS011;11804;51.118;17.058;2023-04-05T15:01:57;19.53;;;5.50;;
23270;SDS011;11804;51.118;17.058;2023-04-05T15:04:24;17.10;;;4.30;;
23270;SDS011;11804;51.118;17.058;2023-04-05T15:06:54;11.67;;;3.87;;
23270;SDS011;11804;51.118;17.058;2023-04-05T15:09:23;5.57;;;3.60;;
23270;SDS011;11804;51.118;17.058;2023-04-05T15:11:50;12.00;;;4.37;;